sensor_id;sensor_type;location;lat;lon;timestamp;pressure;altitude;pressure_sealevel;temperature;humidity
34674;BME280;20879;55.668;37.858;2022-11-15T00:02:02;100421.63;;;-0.71;53.13
34674;BME280;20879;55.668;37.858;2022-11-15T00:04:50;100430.47;;;-0.62;53.01
34674;BME280;20879;55.668;37.858;2022-11-15T00:07:38;100428.16;;;-0.77;53.56
34674;BME280;20879;55.668;37.858;2022-11-15T00:10:30;100433.84;;;-0.83;53.75
34674;BME280;20879;55.668;37.858;2022-11-15T00:13:19;100436.38;;;-0.83;54.17
34674;BME280;20879;55.668;37.858;2022-11-15T00:16:16;100438.13;;;-0.82;54.10
34674;BME280;20879;55.668;37.858;2022-11-15T00:19:09;100432.22;;;-0.81;53.87
34674;BME280;20879;55.668;37.858;2022-11-15T00:21:57;100432.63;;;-0.91;53.45
34674;BME280;20879;55.668;37.858;2022-11-15T00:24:46;100450.44;;;-0.91;53.69
34674;BME280;20879;55.668;37.858;2022-11-15T00:27:33;100430.75;;;-0.76;53.02
34674;BME280;20879;55.668;37.858;2022-11-15T00:30:27;100431.38;;;-0.81;52.39
34674;BME280;20879;55.668;37.858;2022-11-15T00:33:05;100430.22;;;-0.88;53.09
34674;BME280;20879;55.668;37.858;2022-11-15T00:35:53;100433.72;;;-0.86;53.49
34674;BME280;20879;55.668;37.858;2022-11-15T00:38:46;100421.00;;;-0.86;53.21
34674;BME280;20879;55.668;37.858;2022-11-15T00:41:45;100424.41;;;-0.85;53.54
34674;BME280;20879;55.668;37.858;2022-11-15T00:44:33;100420.34;;;-0.82;53.33
34674;BME280;20879;55.668;37.858;2022-11-15T00:47:22;100417.78;;;-0.82;53.43
34674;BME280;20879;55.668;37.858;2022-11-15T00:50:12;100418.72;;;-0.80;53.69
34674;BME280;20879;55.668;37.858;2022-11-15T00:53:00;100412.78;;;-0.80;53.40
34674;BME280;20879;55.668;37.858;2022-11-15T00:55:58;100408.47;;;-0.81;53.10
34674;BME280;20879;55.668;37.858;2022-11-15T00:58:46;100399.44;;;-0.75;53.27
34674;BME280;20879;55.668;37.858;2022-11-15T01:01:40;100400.38;;;-0.73;53.43
34674;BME280;20879;55.668;37.858;2022-11-15T01:04:28;100389.34;;;-0.73;53.22
34674;BME280;20879;55.668;37.858;2022-11-15T01:07:18;100386.56;;;-0.78;53.57
34674;BME280;20879;55.668;37.858;2022-11-15T01:10:07;100380.69;;;-0.77;53.78
34674;BME280;20879;55.668;37.858;2022-11-15T01:12:54;100391.94;;;-0.72;54.00
34674;BME280;20879;55.668;37.858;2022-11-15T01:15:43;100373.06;;;-0.77;53.77
34674;BME280;20879;55.668;37.858;2022-11-15T01:18:18;100390.31;;;-0.69;53.75
34674;BME280;20879;55.668;37.858;2022-11-15T01:21:08;100384.84;;;-0.79;53.78
34674;BME280;20879;55.668;37.858;2022-11-15T01:23:58;100392.50;;;-0.79;53.75
34674;BME280;20879;55.668;37.858;2022-11-15T01:26:46;100389.94;;;-0.79;54.15
34674;BME280;20879;55.668;37.858;2022-11-15T01:29:35;100371.81;;;-0.86;54.56
34674;BME280;20879;55.668;37.858;2022-11-15T01:32:23;100371.00;;;-0.85;54.31
34674;BME280;20879;55.668;37.858;2022-11-15T01:35:11;100366.78;;;-0.85;54.46
34674;BME280;20879;55.668;37.858;2022-11-15T01:37:47;100371.25;;;-0.79;54.28
34674;BME280;20879;55.668;37.858;2022-11-15T01:40:37;100363.50;;;-0.82;54.54
34674;BME280;20879;55.668;37.858;2022-11-15T01:43:31;100358.91;;;-0.91;54.45
34674;BME280;20879;55.668;37.858;2022-11-15T01:46:24;100362.66;;;-0.83;54.33
34674;BME280;20879;55.668;37.858;2022-11-15T01:49:21;100366.53;;;-0.91;54.15
34674;BME280;20879;55.668;37.858;2022-11-15T01:52:12;100373.91;;;-0.97;54.25
34674;BME280;20879;55.668;37.858;2022-11-15T01:55:05;100368.56;;;-1.03;54.54
34674;BME280;20879;55.668;37.858;2022-11-15T01:57:44;100377.84;;;-1.04;54.77
34674;BME280;20879;55.668;37.858;2022-11-15T02:00:34;100358.59;;;-0.99;54.64
34674;BME280;20879;55.668;37.858;2022-11-15T02:03:34;100362.22;;;-0.94;54.02
34674;BME280;20879;55.668;37.858;2022-11-15T02:06:24;100354.44;;;-0.97;53.81
34674;BME280;20879;55.668;37.858;2022-11-15T02:09:13;100357.69;;;-1.01;54.00
34674;BME280;20879;55.668;37.858;2022-11-15T02:12:00;100369.31;;;-1.06;54.10
34674;BME280;20879;55.668;37.858;2022-11-15T02:14:52;100364.22;;;-1.06;54.36
34674;BME280;20879;55.668;37.858;2022-11-15T02:17:52;100347.78;;;-1.14;54.36
34674;BME280;20879;55.668;37.858;2022-11-15T02:21:06;100356.47;;;-1.09;54.42
34674;BME280;20879;55.668;37.858;2022-11-15T02:24:23;100351.19;;;-1.14;54.36
34674;BME280;20879;55.668;37.858;2022-11-15T02:30:41;100331.91;;;-1.30;54.72
34674;BME280;20879;55.668;37.858;2022-11-15T02:33:41;100344.25;;;-1.18;55.01
34674;BME280;20879;55.668;37.858;2022-11-15T02:36:37;100332.34;;;-1.19;54.93
34674;BME280;20879;55.668;37.858;2022-11-15T02:39:33;100336.56;;;-1.19;54.70
34674;BME280;20879;55.668;37.858;2022-11-15T02:42:26;100336.50;;;-1.21;54.76
34674;BME280;20879;55.668;37.858;2022-11-15T02:45:31;100325.13;;;-1.29;54.81
34674;BME280;20879;55.668;37.858;2022-11-15T02:48:30;100335.28;;;-1.29;55.00
34674;BME280;20879;55.668;37.858;2022-11-15T02:51:19;100339.72;;;-1.25;55.44
34674;BME280;20879;55.668;37.858;2022-11-15T02:54:12;100352.47;;;-1.24;55.46
34674;BME280;20879;55.668;37.858;2022-11-15T02:57:05;100341.47;;;-1.24;55.32
34674;BME280;20879;55.668;37.858;2022-11-15T03:00:03;100328.03;;;-1.21;55.49
34674;BME280;20879;55.668;37.858;2022-11-15T03:03:14;100322.66;;;-1.28;56.12
34674;BME280;20879;55.668;37.858;2022-11-15T03:06:18;100318.59;;;-1.24;56.01
34674;BME280;20879;55.668;37.858;2022-11-15T03:09:09;100328.44;;;-1.11;56.21
34674;BME280;20879;55.668;37.858;2022-11-15T03:12:09;100318.84;;;-1.18;56.42
34674;BME280;20879;55.668;37.858;2022-11-15T03:15:03;100325.38;;;-1.23;56.55
34674;BME280;20879;55.668;37.858;2022-11-15T03:17:57;100323.91;;;-1.18;56.97
34674;BME280;20879;55.668;37.858;2022-11-15T03:20:47;100314.47;;;-1.20;57.22
34674;BME280;20879;55.668;37.858;2022-11-15T03:23:39;100308.41;;;-1.24;57.19
34674;BME280;20879;55.668;37.858;2022-11-15T03:26:28;100303.47;;;-1.21;57.47
34674;BME280;20879;55.668;37.858;2022-11-15T03:29:09;100309.53;;;-1.17;57.51
34674;BME280;20879;55.668;37.858;2022-11-15T03:32:03;100294.16;;;-1.20;57.16
34674;BME280;20879;55.668;37.858;2022-11-15T03:35:06;100318.09;;;-1.15;57.30
34674;BME280;20879;55.668;37.858;2022-11-15T03:38:00;100304.44;;;-1.17;57.38
34674;BME280;20879;55.668;37.858;2022-11-15T03:41:00;100319.63;;;-1.19;57.50
34674;BME280;20879;55.668;37.858;2022-11-15T03:43:53;100311.88;;;-1.22;57.11
34674;BME280;20879;55.668;37.858;2022-11-15T03:46:47;100312.69;;;-1.23;57.41
34674;BME280;20879;55.668;37.858;2022-11-15T03:49:39;100303.81;;;-1.33;57.42
34674;BME280;20879;55.668;37.858;2022-11-15T03:52:35;100320.47;;;-1.20;57.11
34674;BME280;20879;55.668;37.858;2022-11-15T03:55:23;100316.84;;;-1.25;57.36
34674;BME280;20879;55.668;37.858;2022-11-15T03:58:18;100310.97;;;-1.24;57.24
34674;BME280;20879;55.668;37.858;2022-11-15T04:01:06;100310.00;;;-1.26;56.82
34674;BME280;20879;55.668;37.858;2022-11-15T04:03:54;100319.72;;;-1.37;57.34
34674;BME280;20879;55.668;37.858;2022-11-15T04:06:47;100310.38;;;-1.38;57.11
34674;BME280;20879;55.668;37.858;2022-11-15T04:09:41;100310.78;;;-1.29;57.35
34674;BME280;20879;55.668;37.858;2022-11-15T04:12:43;100304.69;;;-1.32;57.33
34674;BME280;20879;55.668;37.858;2022-11-15T04:15:34;100278.97;;;-1.40;56.96
34674;BME280;20879;55.668;37.858;2022-11-15T04:18:22;100305.56;;;-1.32;57.11
34674;BME280;20879;55.668;37.858;2022-11-15T04:21:10;100306.28;;;-1.34;57.18
34674;BME280;20879;55.668;37.858;2022-11-15T04:24:26;100292.72;;;-1.35;57.18
34674;BME280;20879;55.668;37.858;2022-11-15T04:27:14;100297.78;;;-1.35;56.61
34674;BME280;20879;55.668;37.858;2022-11-15T04:30:11;100299.84;;;-1.26;57.10
34674;BME280;20879;55.668;37.858;2022-11-15T04:33:01;100299.19;;;-1.22;57.17
34674;BME280;20879;55.668;37.858;2022-11-15T04:36:00;100295.16;;;-1.17;57.19
34674;BME280;20879;55.668;37.858;2022-11-15T04:39:01;100302.59;;;-1.21;57.09
34674;BME280;20879;55.668;37.858;2022-11-15T04:41:54;100293.28;;;-1.21;56.51
34674;BME280;20879;55.668;37.858;2022-11-15T04:44:47;100298.13;;;-1.27;56.88
34674;BME280;20879;55.668;37.858;2022-11-15T04:47:35;100284.22;;;-1.35;57.01
34674;BME280;20879;55.668;37.858;2022-11-15T04:50:28;100285.56;;;-1.44;56.66
34674;BME280;20879;55.668;37.858;2022-11-15T04:53:21;100282.09;;;-1.46;57.26
34674;BME280;20879;55.668;37.858;2022-11-15T04:56:10;100283.97;;;-1.42;57.06
34674;BME280;20879;55.668;37.858;2022-11-15T04:58:58;100274.84;;;-1.36;56.81
34674;BME280;20879;55.668;37.858;2022-11-15T05:01:46;100280.88;;;-1.34;56.95
34674;BME280;20879;55.668;37.858;2022-11-15T05:04:34;100273.34;;;-1.33;57.02
34674;BME280;20879;55.668;37.858;2022-11-15T05:07:22;100271.72;;;-1.31;56.94
34674;BME280;20879;55.668;37.858;2022-11-15T05:10:03;100273.28;;;-1.34;56.89
34674;BME280;20879;55.668;37.858;2022-11-15T05:12:38;100276.78;;;-1.31;56.99
34674;BME280;20879;55.668;37.858;2022-11-15T05:15:27;100264.56;;;-1.39;56.96
34674;BME280;20879;55.668;37.858;2022-11-15T05:18:20;100284.47;;;-1.29;56.87
34674;BME280;20879;55.668;37.858;2022-11-15T05:21:11;100275.31;;;-1.26;56.66
34674;BME280;20879;55.668;37.858;2022-11-15T05:24:02;100274.56;;;-1.23;56.75
34674;BME280;20879;55.668;37.858;2022-11-15T05:26:49;100241.53;;;-1.44;56.61
34674;BME280;20879;55.668;37.858;2022-11-15T05:29:42;100275.63;;;-1.18;56.75
34674;BME280;20879;55.668;37.858;2022-11-15T05:32:30;100260.75;;;-1.30;56.66
34674;BME280;20879;55.668;37.858;2022-11-15T05:35:30;100259.47;;;-1.20;56.28
34674;BME280;20879;55.668;37.858;2022-11-15T05:38:18;100270.50;;;-1.19;56.34
34674;BME280;20879;55.668;37.858;2022-11-15T05:41:08;100268.81;;;-1.19;56.58
34674;BME280;20879;55.668;37.858;2022-11-15T05:43:57;100267.94;;;-1.19;56.19
34674;BME280;20879;55.668;37.858;2022-11-15T05:46:52;100268.13;;;-1.15;56.63
34674;BME280;20879;55.668;37.858;2022-11-15T05:49:31;100259.84;;;-1.11;56.63
34674;BME280;20879;55.668;37.858;2022-11-15T05:52:34;100254.06;;;-1.07;56.40
34674;BME280;20879;55.668;37.858;2022-11-15T05:55:24;100252.31;;;-1.08;56.08
34674;BME280;20879;55.668;37.858;2022-11-15T05:58:14;100252.88;;;-1.15;55.87
34674;BME280;20879;55.668;37.858;2022-11-15T06:01:05;100251.34;;;-1.11;56.09
34674;BME280;20879;55.668;37.858;2022-11-15T06:03:53;100241.44;;;-1.05;55.82
34674;BME280;20879;55.668;37.858;2022-11-15T06:06:41;100253.13;;;-0.88;56.00
34674;BME280;20879;55.668;37.858;2022-11-15T06:09:29;100238.22;;;-0.78;55.61
34674;BME280;20879;55.668;37.858;2022-11-15T06:12:16;100232.75;;;-0.66;55.49
34674;BME280;20879;55.668;37.858;2022-11-15T06:15:08;100236.97;;;-0.44;54.86
34674;BME280;20879;55.668;37.858;2022-11-15T06:17:56;100248.19;;;-0.39;54.88
34674;BME280;20879;55.668;37.858;2022-11-15T06:20:45;100256.84;;;-0.34;54.70
34674;BME280;20879;55.668;37.858;2022-11-15T06:23:33;100238.50;;;-0.25;54.48
34674;BME280;20879;55.668;37.858;2022-11-15T06:26:22;100230.56;;;-0.10;54.13
34674;BME280;20879;55.668;37.858;2022-11-15T06:29:10;100235.38;;;0.05;54.28
34674;BME280;20879;55.668;37.858;2022-11-15T06:31:59;100226.69;;;0.24;53.61
34674;BME280;20879;55.668;37.858;2022-11-15T06:34:52;100230.50;;;0.37;53.89
34674;BME280;20879;55.668;37.858;2022-11-15T06:37:41;100227.44;;;0.21;53.91
34674;BME280;20879;55.668;37.858;2022-11-15T06:40:29;100219.84;;;-0.02;54.04
34674;BME280;20879;55.668;37.858;2022-11-15T06:43:17;100214.22;;;-0.17;54.21
34674;BME280;20879;55.668;37.858;2022-11-15T06:46:06;100221.59;;;-0.25;54.28
34674;BME280;20879;55.668;37.858;2022-11-15T06:48:57;100216.19;;;-0.32;54.48
34674;BME280;20879;55.668;37.858;2022-11-15T06:51:41;100218.56;;;-0.37;54.78
34674;BME280;20879;55.668;37.858;2022-11-15T06:54:29;100216.31;;;-0.29;54.64
34674;BME280;20879;55.668;37.858;2022-11-15T06:57:24;100215.28;;;-0.34;54.15
34674;BME280;20879;55.668;37.858;2022-11-15T07:00:16;100222.13;;;-0.33;54.37
34674;BME280;20879;55.668;37.858;2022-11-15T07:03:04;100213.75;;;-0.29;54.85
34674;BME280;20879;55.668;37.858;2022-11-15T07:05:55;100213.91;;;-0.26;54.69
34674;BME280;20879;55.668;37.858;2022-11-15T07:08:51;100197.69;;;-0.28;54.41
34674;BME280;20879;55.668;37.858;2022-11-15T07:11:40;100198.50;;;-0.29;54.46
34674;BME280;20879;55.668;37.858;2022-11-15T07:14:28;100197.31;;;-0.15;54.42
34674;BME280;20879;55.668;37.858;2022-11-15T07:17:16;100170.44;;;-0.31;54.26
34674;BME280;20879;55.668;37.858;2022-11-15T07:20:05;100199.47;;;-0.26;54.40
34674;BME280;20879;55.668;37.858;2022-11-15T07:23:02;100194.94;;;-0.34;54.59
34674;BME280;20879;55.668;37.858;2022-11-15T07:25:50;100190.38;;;-0.19;54.42
34674;BME280;20879;55.668;37.858;2022-11-15T07:28:38;100180.81;;;-0.02;54.59
34674;BME280;20879;55.668;37.858;2022-11-15T07:31:26;100183.84;;;0.12;54.03
34674;BME280;20879;55.668;37.858;2022-11-15T07:34:14;100182.00;;;0.33;53.73
34674;BME280;20879;55.668;37.858;2022-11-15T07:37:02;100180.53;;;0.40;53.43
34674;BME280;20879;55.668;37.858;2022-11-15T07:39:57;100178.94;;;0.44;53.06
34674;BME280;20879;55.668;37.858;2022-11-15T07:42:45;100173.75;;;0.41;53.38
34674;BME280;20879;55.668;37.858;2022-11-15T07:45:45;100172.47;;;0.28;53.68
34674;BME280;20879;55.668;37.858;2022-11-15T07:48:44;100162.91;;;0.21;53.97
34674;BME280;20879;55.668;37.858;2022-11-15T07:51:32;100161.03;;;0.15;53.65
34674;BME280;20879;55.668;37.858;2022-11-15T07:54:20;100150.19;;;0.21;53.93
34674;BME280;20879;55.668;37.858;2022-11-15T07:57:10;100170.31;;;0.14;53.61
34674;BME280;20879;55.668;37.858;2022-11-15T07:59:58;100161.38;;;0.00;53.79
34674;BME280;20879;55.668;37.858;2022-11-15T08:02:46;100164.63;;;-0.04;54.03
34674;BME280;20879;55.668;37.858;2022-11-15T08:05:36;100150.84;;;-0.09;54.50
34674;BME280;20879;55.668;37.858;2022-11-15T08:08:30;100150.63;;;-0.15;54.35
34674;BME280;20879;55.668;37.858;2022-11-15T08:11:18;100133.16;;;-0.30;54.30
34674;BME280;20879;55.668;37.858;2022-11-15T08:14:13;100137.75;;;-0.20;54.80
34674;BME280;20879;55.668;37.858;2022-11-15T08:17:02;100148.66;;;0.00;54.57
34674;BME280;20879;55.668;37.858;2022-11-15T08:19:50;100147.19;;;0.08;54.67
34674;BME280;20879;55.668;37.858;2022-11-15T08:22:38;100142.91;;;0.07;54.28
34674;BME280;20879;55.668;37.858;2022-11-15T08:25:28;100148.00;;;0.07;54.49
34674;BME280;20879;55.668;37.858;2022-11-15T08:28:22;100152.50;;;0.14;54.23
34674;BME280;20879;55.668;37.858;2022-11-15T08:31:18;100143.91;;;0.11;54.12
34674;BME280;20879;55.668;37.858;2022-11-15T08:34:06;100121.34;;;-0.04;54.32
34674;BME280;20879;55.668;37.858;2022-11-15T08:36:54;100137.16;;;0.13;54.31
34674;BME280;20879;55.668;37.858;2022-11-15T08:39:48;100128.72;;;0.14;54.55
34674;BME280;20879;55.668;37.858;2022-11-15T08:42:36;100134.06;;;0.22;54.54
34674;BME280;20879;55.668;37.858;2022-11-15T08:45:24;100130.16;;;0.31;54.37
34674;BME280;20879;55.668;37.858;2022-11-15T08:48:20;100120.25;;;0.41;54.08
34674;BME280;20879;55.668;37.858;2022-11-15T08:51:13;100108.97;;;0.60;53.82
34674;BME280;20879;55.668;37.858;2022-11-15T08:54:02;100116.50;;;0.84;53.10
34674;BME280;20879;55.668;37.858;2022-11-15T08:56:50;100109.72;;;0.84;53.00
34674;BME280;20879;55.668;37.858;2022-11-15T08:59:39;100113.97;;;0.84;53.56
34674;BME280;20879;55.668;37.858;2022-11-15T09:02:26;100098.72;;;0.85;53.18
34674;BME280;20879;55.668;37.858;2022-11-15T09:05:16;100104.28;;;1.02;52.44
34674;BME280;20879;55.668;37.858;2022-11-15T09:08:16;100107.78;;;1.04;52.27
34674;BME280;20879;55.668;37.858;2022-11-15T09:11:11;100093.16;;;0.99;52.87
34674;BME280;20879;55.668;37.858;2022-11-15T09:14:02;100093.91;;;1.25;52.93
34674;BME280;20879;55.668;37.858;2022-11-15T09:16:50;100056.28;;;1.18;52.18
34674;BME280;20879;55.668;37.858;2022-11-15T09:19:38;100083.22;;;1.38;52.26
34674;BME280;20879;55.668;37.858;2022-11-15T09:22:27;100086.34;;;1.28;51.90
34674;BME280;20879;55.668;37.858;2022-11-15T09:25:06;100071.56;;;1.16;52.44
34674;BME280;20879;55.668;37.858;2022-11-15T09:27:56;100071.44;;;1.12;52.42
34674;BME280;20879;55.668;37.858;2022-11-15T09:30:45;100070.16;;;0.97;52.31
34674;BME280;20879;55.668;37.858;2022-11-15T09:33:33;100082.09;;;0.98;52.83
34674;BME280;20879;55.668;37.858;2022-11-15T09:36:26;100075.00;;;0.88;53.33
34674;BME280;20879;55.668;37.858;2022-11-15T09:39:18;100060.88;;;0.71;52.88
34674;BME280;20879;55.668;37.858;2022-11-15T09:42:26;100065.63;;;0.87;52.90
34674;BME280;20879;55.668;37.858;2022-11-15T09:45:21;100073.13;;;0.82;53.36
34674;BME280;20879;55.668;37.858;2022-11-15T09:48:35;100071.59;;;0.89;53.29
34674;BME280;20879;55.668;37.858;2022-11-15T09:51:30;100069.81;;;0.85;53.15
34674;BME280;20879;55.668;37.858;2022-11-15T09:54:08;100069.69;;;0.82;52.80
34674;BME280;20879;55.668;37.858;2022-11-15T09:57:09;100050.31;;;0.58;52.95
34674;BME280;20879;55.668;37.858;2022-11-15T10:00:02;100069.16;;;0.63;53.44
34674;BME280;20879;55.668;37.858;2022-11-15T10:03:08;100062.09;;;0.55;53.65
34674;BME280;20879;55.668;37.858;2022-11-15T10:05:44;100061.38;;;0.59;53.62
34674;BME280;20879;55.668;37.858;2022-11-15T10:08:28;100046.09;;;0.59;53.65
34674;BME280;20879;55.668;37.858;2022-11-15T10:11:10;100052.81;;;0.57;53.56
34674;BME280;20879;55.668;37.858;2022-11-15T10:14:07;100056.63;;;0.71;53.79
34674;BME280;20879;55.668;37.858;2022-11-15T10:19:54;100048.09;;;0.69;53.21
34674;BME280;20879;55.668;37.858;2022-11-15T10:22:37;100039.44;;;0.64;53.47
34674;BME280;20879;55.668;37.858;2022-11-15T10:25:20;100046.28;;;0.65;53.51
34674;BME280;20879;55.668;37.858;2022-11-15T10:27:56;100038.88;;;0.74;53.62
34674;BME280;20879;55.668;37.858;2022-11-15T10:30:37;100026.19;;;0.76;53.63
34674;BME280;20879;55.668;37.858;2022-11-15T10:33:19;100011.91;;;0.81;53.67
34674;BME280;20879;55.668;37.858;2022-11-15T10:36:15;100016.53;;;0.94;53.09
34674;BME280;20879;55.668;37.858;2022-11-15T10:38:54;100007.81;;;0.87;53.13
34674;BME280;20879;55.668;37.858;2022-11-15T10:41:41;100003.63;;;0.88;53.06
34674;BME280;20879;55.668;37.858;2022-11-15T10:44:22;100002.53;;;0.80;53.22
34674;BME280;20879;55.668;37.858;2022-11-15T10:50:29;100004.97;;;0.77;53.99
34674;BME280;20879;55.668;37.858;2022-11-15T10:53:00;99990.28;;;0.68;53.94
34674;BME280;20879;55.668;37.858;2022-11-15T10:55:33;100008.34;;;0.76;54.02
34674;BME280;20879;55.668;37.858;2022-11-15T10:58:05;99984.50;;;0.74;54.00
34674;BME280;20879;55.668;37.858;2022-11-15T11:00:36;99992.38;;;0.81;53.84
34674;BME280;20879;55.668;37.858;2022-11-15T11:03:28;99985.56;;;0.82;54.00
34674;BME280;20879;55.668;37.858;2022-11-15T11:06:08;99993.13;;;0.79;54.27
34674;BME280;20879;55.668;37.858;2022-11-15T11:08:38;99992.03;;;0.69;54.27
34674;BME280;20879;55.668;37.858;2022-11-15T11:11:08;99982.50;;;0.63;54.66
34674;BME280;20879;55.668;37.858;2022-11-15T11:13:43;99970.41;;;0.56;54.41
34674;BME280;20879;55.668;37.858;2022-11-15T11:16:25;99972.19;;;0.59;54.57
34674;BME280;20879;55.668;37.858;2022-11-15T11:19:17;99969.69;;;0.60;54.86
34674;BME280;20879;55.668;37.858;2022-11-15T11:21:59;99955.03;;;0.53;54.70
34674;BME280;20879;55.668;37.858;2022-11-15T11:24:34;99954.19;;;0.54;54.69
34674;BME280;20879;55.668;37.858;2022-11-15T11:27:33;99959.00;;;0.74;54.31
34674;BME280;20879;55.668;37.858;2022-11-15T11:30:14;99963.34;;;0.76;54.39
34674;BME280;20879;55.668;37.858;2022-11-15T11:33:10;99965.19;;;0.82;54.38
34674;BME280;20879;55.668;37.858;2022-11-15T11:35:50;99965.28;;;0.85;54.45
34674;BME280;20879;55.668;37.858;2022-11-15T11:38:40;99966.06;;;0.82;54.61
34674;BME280;20879;55.668;37.858;2022-11-15T11:41:17;99952.09;;;0.69;54.77
34674;BME280;20879;55.668;37.858;2022-11-15T11:44:06;99924.81;;;0.37;54.62
34674;BME280;20879;55.668;37.858;2022-11-15T11:46:49;99949.94;;;0.53;55.48
34674;BME280;20879;55.668;37.858;2022-11-15T11:49:26;99938.56;;;0.42;56.06
34674;BME280;20879;55.668;37.858;2022-11-15T11:52:03;99947.56;;;0.30;56.74
34674;BME280;20879;55.668;37.858;2022-11-15T11:54:44;99946.91;;;0.09;58.43
34674;BME280;20879;55.668;37.858;2022-11-15T11:57:28;99940.31;;;-0.12;60.01
34674;BME280;20879;55.668;37.858;2022-11-15T12:00:09;99937.41;;;-0.24;59.69
34674;BME280;20879;55.668;37.858;2022-11-15T12:02:44;99947.59;;;-0.24;61.10
34674;BME280;20879;55.668;37.858;2022-11-15T12:05:18;99944.41;;;-0.17;61.59
34674;BME280;20879;55.668;37.858;2022-11-15T12:07:56;99923.09;;;-0.21;62.02
34674;BME280;20879;55.668;37.858;2022-11-15T12:10:33;99941.34;;;-0.07;61.98
34674;BME280;20879;55.668;37.858;2022-11-15T12:16:09;99833.31;;;14.83;59.65
34674;BME280;20879;55.668;37.858;2022-11-15T12:18:45;99881.19;;;14.80;43.85
34674;BME280;20879;55.668;37.858;2022-11-15T12:21:21;99885.69;;;11.18;44.57
34674;BME280;20879;55.668;37.858;2022-11-15T12:23:58;99891.75;;;7.92;48.80
34674;BME280;20879;55.668;37.858;2022-11-15T12:26:34;99880.69;;;5.55;51.84
34674;BME280;20879;55.668;37.858;2022-11-15T12:29:12;99874.72;;;3.98;54.89
34674;BME280;20879;55.668;37.858;2022-11-15T12:31:49;99874.78;;;2.96;56.10
34674;BME280;20879;55.668;37.858;2022-11-15T12:34:41;99902.41;;;2.27;57.62
34674;BME280;20879;55.668;37.858;2022-11-15T12:40:31;99912.63;;;1.19;60.13
34674;BME280;20879;55.668;37.858;2022-11-15T12:46:21;99901.38;;;0.79;62.96
34674;BME280;20879;55.668;37.858;2022-11-15T12:55:32;99901.81;;;0.05;61.82
34674;BME280;20879;55.668;37.858;2022-11-15T12:58:39;99895.53;;;-0.07;64.11
34674;BME280;20879;55.668;37.858;2022-11-15T13:01:10;99899.66;;;-0.10;62.36
34674;BME280;20879;55.668;37.858;2022-11-15T13:04:13;99887.00;;;-0.09;67.39
34674;BME280;20879;55.668;37.858;2022-11-15T13:06:45;99883.38;;;-0.43;65.83
34674;BME280;20879;55.668;37.858;2022-11-15T13:12:01;99877.06;;;-0.56;67.07
34674;BME280;20879;55.668;37.858;2022-11-15T13:14:50;99868.78;;;-0.76;71.56
34674;BME280;20879;55.668;37.858;2022-11-15T13:17:25;99868.81;;;-1.00;70.86
34674;BME280;20879;55.668;37.858;2022-11-15T13:20:18;99872.22;;;-0.99;71.48
34674;BME280;20879;55.668;37.858;2022-11-15T13:22:50;99863.78;;;-0.98;69.97
34674;BME280;20879;55.668;37.858;2022-11-15T13:28:35;99847.50;;;-1.03;72.38
34674;BME280;20879;55.668;37.858;2022-11-15T13:31:20;99852.09;;;-0.93;72.51
34674;BME280;20879;55.668;37.858;2022-11-15T13:33:50;99853.69;;;-0.95;70.49
34674;BME280;20879;55.668;37.858;2022-11-15T13:36:28;99832.88;;;-1.11;72.14
34674;BME280;20879;55.668;37.858;2022-11-15T13:39:11;99847.22;;;-1.13;71.88
34674;BME280;20879;55.668;37.858;2022-11-15T13:41:46;99824.00;;;-1.22;73.26
34674;BME280;20879;55.668;37.858;2022-11-15T13:44:22;99837.84;;;-1.14;74.78
34674;BME280;20879;55.668;37.858;2022-11-15T13:47:01;99844.88;;;-1.07;76.25
34674;BME280;20879;55.668;37.858;2022-11-15T13:49:36;99829.25;;;-1.17;74.21
34674;BME280;20879;55.668;37.858;2022-11-15T13:52:07;99827.50;;;-1.20;75.43
34674;BME280;20879;55.668;37.858;2022-11-15T13:54:40;99841.59;;;-1.28;76.31
34674;BME280;20879;55.668;37.858;2022-11-15T13:57:14;99832.44;;;-1.23;76.27
34674;BME280;20879;55.668;37.858;2022-11-15T13:59:49;99832.44;;;-1.23;77.02
34674;BME280;20879;55.668;37.858;2022-11-15T14:02:27;99831.28;;;-1.33;76.64
34674;BME280;20879;55.668;37.858;2022-11-15T14:05:02;99833.78;;;-1.34;77.76
34674;BME280;20879;55.668;37.858;2022-11-15T14:07:32;99838.09;;;-1.32;76.75
34674;BME280;20879;55.668;37.858;2022-11-15T14:10:24;99828.25;;;-1.23;78.03
34674;BME280;20879;55.668;37.858;2022-11-15T14:12:53;99831.44;;;-1.28;77.04
34674;BME280;20879;55.668;37.858;2022-11-15T14:15:31;99820.19;;;-1.35;78.78
34674;BME280;20879;55.668;37.858;2022-11-15T14:18:01;99822.84;;;-1.32;77.48
34674;BME280;20879;55.668;37.858;2022-11-15T14:20:36;99828.84;;;-1.30;78.10
34674;BME280;20879;55.668;37.858;2022-11-15T14:23:19;99816.13;;;-1.30;79.28
34674;BME280;20879;55.668;37.858;2022-11-15T14:25:53;99817.69;;;-1.33;77.88
34674;BME280;20879;55.668;37.858;2022-11-15T14:28:30;99822.91;;;-1.30;80.28
34674;BME280;20879;55.668;37.858;2022-11-15T14:31:10;99799.81;;;-1.36;79.94
34674;BME280;20879;55.668;37.858;2022-11-15T14:33:41;99799.06;;;-1.34;78.54
34674;BME280;20879;55.668;37.858;2022-11-15T14:36:13;99808.56;;;-1.28;79.41
34674;BME280;20879;55.668;37.858;2022-11-15T14:38:48;99807.81;;;-1.26;78.95
34674;BME280;20879;55.668;37.858;2022-11-15T14:41:20;99804.25;;;-1.31;79.57
34674;BME280;20879;55.668;37.858;2022-11-15T14:43:51;99804.94;;;-1.35;79.95
34674;BME280;20879;55.668;37.858;2022-11-15T14:46:22;99801.41;;;-1.40;80.80
34674;BME280;20879;55.668;37.858;2022-11-15T14:48:52;99800.94;;;-1.52;81.35
34674;BME280;20879;55.668;37.858;2022-11-15T14:51:21;99792.13;;;-1.64;82.27
34674;BME280;20879;55.668;37.858;2022-11-15T14:53:50;99793.13;;;-1.59;82.02
34674;BME280;20879;55.668;37.858;2022-11-15T14:56:27;99778.03;;;-1.54;82.29
34674;BME280;20879;55.668;37.858;2022-11-15T14:58:56;99769.53;;;-1.56;82.91
34674;BME280;20879;55.668;37.858;2022-11-15T15:01:28;99773.47;;;-1.64;83.83